Time;durP1;ratioP1;P1;durP2;ratioP2;P2;SDS_P1;SDS_P2;PMS_P1;PMS_P2;Temp;Humidity;BMP_temperature;BMP_pressure;BME280_temperature;BME280_humidity;BME280_pressure;Samples;Min_cycle;Max_cycle;Signal;HPM_P1;HPM_P2
2022/05/07 00:00:33;;;;;;;10.30;5.60;;;12.00;99.90;;;;;;5031721;28;20037;-78
2022/05/07 00:02:59;;;;;;;8.65;4.93;;;12.00;99.90;;;;;;5031954;28;20507;-77
2022/05/07 00:05:25;;;;;;;10.63;6.20;;;13.20;99.90;;;;;;5031318;28;20394;-77
2022/05/07 00:07:51;;;;;;;9.85;5.70;;;12.50;99.90;;;;;;5013783;28;20025;-78
2022/05/07 00:10:16;;;;;;;12.25;5.85;;;12.10;99.90;;;;;;5031782;28;20038;-77
2022/05/07 00:12:42;;;;;;;9.95;5.53;;;12.00;99.90;;;;;;5013740;28;20129;-77
2022/05/07 00:15:08;;;;;;;12.75;6.03;;;12.00;99.90;;;;;;5014331;28;20030;-77
2022/05/07 00:20:18;;;;;;;9.80;5.93;;;12.00;99.90;;;;;;5032557;28;20041;-76
2022/05/07 00:22:44;;;;;;;13.82;5.88;;;12.00;99.90;;;;;;5014644;28;20033;-76
2022/05/07 00:25:10;;;;;;;9.85;5.25;;;12.00;99.90;;;;;;5030739;28;20106;-76
2022/05/07 00:27:36;;;;;;;11.32;6.00;;;11.90;99.90;;;;;;5012828;28;20064;-76
2022/05/07 00:30:06;;;;;;;11.52;5.53;;;12.00;99.90;;;;;;5030510;28;20074;-76
2022/05/07 00:32:32;;;;;;;11.15;5.60;;;12.00;99.90;;;;;;5013009;28;20394;-77
2022/05/07 00:34:58;;;;;;;9.88;5.97;;;12.00;99.90;;;;;;5012647;28;20044;-75
2022/05/07 00:37:24;;;;;;;9.13;5.32;;;12.00;99.90;;;;;;5030259;28;20421;-75
2022/05/07 00:39:50;;;;;;;8.52;5.28;;;12.00;99.90;;;;;;5030387;28;20032;-75
2022/05/07 00:42:16;;;;;;;11.75;5.03;;;12.00;99.90;;;;;;5030474;28;20030;-75
2022/05/07 00:44:42;;;;;;;8.45;5.22;;;12.00;99.90;;;;;;5030514;28;20029;-75
2022/05/07 00:47:16;;;;;;;13.55;5.50;;;12.00;99.90;;;;;;5030124;28;20090;-75
2022/05/07 00:49:47;;;;;;;8.93;5.07;;;12.30;99.90;;;;;;5030281;28;20450;-75
2022/05/07 00:52:13;;;;;;;8.20;5.07;;;12.00;99.90;;;;;;5030173;28;20041;-75
2022/05/07 00:54:41;;;;;;;9.73;5.10;;;12.00;99.90;;;;;;5030253;28;20030;-76
2022/05/07 00:57:09;;;;;;;8.02;4.97;;;12.00;99.90;;;;;;5030198;28;20431;-76
2022/05/07 00:59:35;;;;;;;10.40;4.93;;;12.00;99.90;;;;;;5030375;28;20386;-75
2022/05/07 01:02:00;;;;;;;10.10;5.43;;;12.30;99.90;;;;;;5030305;28;20025;-76
2022/05/07 01:04:26;;;;;;;9.77;5.47;;;12.00;99.90;;;;;;5032223;28;20030;-75
2022/05/07 01:06:53;;;;;;;8.60;4.50;;;12.10;99.90;;;;;;5033560;28;20071;-76
2022/05/07 01:09:19;;;;;;;10.75;4.88;;;12.00;99.90;;;;;;5015805;28;20051;-75
2022/05/07 01:11:45;;;;;;;6.22;4.10;;;12.00;99.90;;;;;;5033783;28;20045;-76
2022/05/07 01:14:10;;;;;;;8.80;4.70;;;12.00;99.90;;;;;;5033864;28;20029;-76
2022/05/07 01:16:36;;;;;;;7.25;4.63;;;12.10;99.90;;;;;;5033714;28;20021;-76
2022/05/07 01:19:02;;;;;;;6.53;3.78;;;12.20;99.90;;;;;;5034027;28;20036;-75
2022/05/07 01:21:28;;;;;;;8.80;4.10;;;12.10;99.90;;;;;;5033222;28;20040;-76
2022/05/07 01:23:54;;;;;;;8.45;3.75;;;12.10;99.90;;;;;;5015606;28;20029;-76
2022/05/07 01:26:21;;;;;;;9.63;4.38;;;12.20;99.90;;;;;;5033458;28;20033;-76
2022/05/07 01:28:47;;;;;;;6.55;3.95;;;12.20;99.90;;;;;;5015595;28;20053;-76
2022/05/07 01:31:12;;;;;;;6.85;3.88;;;12.20;99.90;;;;;;5033134;28;20073;-76
2022/05/07 01:33:39;;;;;;;7.75;3.88;;;12.30;99.90;;;;;;5015541;28;20037;-76
2022/05/07 01:36:09;;;;;;;9.05;3.65;;;12.30;99.90;;;;;;5032988;28;20040;-76
2022/05/07 01:38:35;;;;;;;9.43;3.63;;;12.30;99.90;;;;;;5015360;28;20075;-76
2022/05/07 01:41:01;;;;;;;6.00;3.30;;;12.30;99.90;;;;;;5033063;28;20037;-76
2022/05/07 01:43:27;;;;;;;6.97;3.50;;;12.30;99.90;;;;;;5015344;28;20029;-76
2022/05/07 01:45:55;;;;;;;9.40;4.47;;;12.40;99.90;;;;;;5015196;28;20068;-75
2022/05/07 01:48:20;;;;;;;8.68;4.25;;;12.40;99.90;;;;;;5015956;28;20033;-75
2022/05/07 01:50:46;;;;;;;7.90;4.13;;;12.40;99.90;;;;;;5032897;28;20038;-75
2022/05/07 01:53:14;;;;;;;8.10;3.35;;;12.40;99.90;;;;;;5032895;28;20037;-75
2022/05/07 01:55:40;;;;;;;6.93;3.75;;;12.40;99.90;;;;;;5014981;28;20033;-75
2022/05/07 01:58:06;;;;;;;6.15;3.47;;;12.40;99.90;;;;;;5032775;28;20050;-75
2022/05/07 02:00:33;;;;;;;8.80;3.58;;;12.40;99.90;;;;;;5032737;28;20030;-75
2022/05/07 02:02:59;;;;;;;8.18;3.63;;;12.40;99.90;;;;;;5032744;28;20026;-76
2022/05/07 02:05:26;;;;;;;7.60;3.90;;;12.40;99.90;;;;;;5014833;28;20112;-76
2022/05/07 02:07:52;;;;;;;8.00;4.05;;;12.40;99.90;;;;;;5014829;28;20042;-76
2022/05/07 02:10:17;;;;;;;10.00;4.85;;;12.40;99.90;;;;;;5032654;28;20129;-76
2022/05/07 02:12:43;;;;;;;6.97;3.90;;;12.40;99.90;;;;;;5014826;28;20057;-75
2022/05/07 02:15:09;;;;;;;6.50;3.90;;;12.40;99.90;;;;;;5032067;28;20038;-75
2022/05/07 02:17:35;;;;;;;8.23;4.03;;;12.40;99.90;;;;;;5032351;28;20034;-75
2022/05/07 02:20:02;;;;;;;7.63;4.75;;;12.40;99.90;;;;;;5014710;28;20065;-75
2022/05/07 02:22:28;;;;;;;13.52;5.00;;;12.40;99.90;;;;;;5032452;28;20045;-76
2022/05/07 02:24:53;;;;;;;5.95;3.42;;;12.40;99.90;;;;;;5032437;28;20034;-75
2022/05/07 02:27:19;;;;;;;7.53;3.30;;;12.40;99.90;;;;;;5032258;28;20036;-75
2022/05/07 02:29:44;;;;;;;5.85;3.88;;;12.40;99.90;;;;;;5032313;28;20037;-75
2022/05/07 02:32:13;;;;;;;9.77;3.00;;;12.40;99.90;;;;;;5014579;28;20038;-75
2022/05/07 02:34:40;;;;;;;5.03;2.42;;;12.40;99.90;;;;;;5032151;28;20121;-75
2022/05/07 02:37:05;;;;;;;8.98;2.90;;;12.40;99.90;;;;;;5014362;28;20173;-75
2022/05/07 02:39:32;;;;;;;8.95;2.90;;;12.50;99.90;;;;;;5032487;28;20104;-75
2022/05/07 02:44:42;;;;;;;3.50;1.20;;;12.50;99.90;;;;;;5032804;28;20080;-75
2022/05/07 02:47:07;;;;;;;5.63;1.88;;;12.50;99.90;;;;;;5014328;28;20065;-75
2022/05/07 02:49:33;;;;;;;5.82;1.70;;;12.50;99.90;;;;;;5031977;28;20623;-75
2022/05/07 02:51:59;;;;;;;6.13;1.23;;;12.50;99.90;;;;;;5031956;28;20037;-75
2022/05/07 02:54:25;;;;;;;1.52;0.90;;;12.50;99.90;;;;;;5014162;28;20040;-75
2022/05/07 02:56:50;;;;;;;9.35;2.58;;;12.50;99.90;;;;;;5032072;28;20046;-75
2022/05/07 02:59:16;;;;;;;3.92;0.95;;;12.50;99.90;;;;;;5031816;28;20041;-75
2022/05/07 03:01:42;;;;;;;4.10;1.25;;;12.50;99.90;;;;;;5032148;28;20390;-76
2022/05/07 03:04:08;;;;;;;7.43;1.70;;;12.50;99.90;;;;;;5014095;28;20025;-76
2022/05/07 03:06:34;;;;;;;2.85;1.27;;;12.50;99.90;;;;;;5014090;28;20044;-76
2022/05/07 03:09:00;;;;;;;4.60;0.95;;;12.50;99.90;;;;;;5013975;28;20440;-76
2022/05/07 03:11:26;;;;;;;5.07;1.10;;;12.50;99.90;;;;;;5013964;28;20033;-75
2022/05/07 03:13:51;;;;;;;4.00;0.75;;;12.50;99.90;;;;;;5013692;28;20042;-75
2022/05/07 03:16:17;;;;;;;6.43;1.33;;;12.40;99.90;;;;;;5031615;28;20025;-76
2022/05/07 03:18:42;;;;;;;10.77;1.83;;;12.40;99.90;;;;;;5031491;28;20064;-76
2022/05/07 03:21:08;;;;;;;3.90;1.00;;;12.40;99.90;;;;;;5031586;28;20045;-76
2022/05/07 03:23:34;;;;;;;4.43;0.98;;;12.40;99.90;;;;;;5031469;28;20033;-76
2022/05/07 03:25:59;;;;;;;5.85;1.83;;;12.30;99.90;;;;;;5031335;28;20033;-75
2022/05/07 03:28:25;;;;;;;7.57;1.50;;;12.30;99.90;;;;;;5012637;28;20041;-76
2022/05/07 03:30:50;;;;;;;7.40;2.45;;;12.30;99.90;;;;;;5013603;28;20037;-76
2022/05/07 03:33:16;;;;;;;4.28;1.65;;;12.30;99.90;;;;;;5013667;28;20060;-75
2022/05/07 03:35:43;;;;;;;9.52;1.42;;;12.30;99.90;;;;;;5031196;28;20401;-75
2022/05/07 03:38:10;;;;;;;5.45;1.83;;;12.20;99.90;;;;;;5031270;28;20554;-75
2022/05/07 03:40:35;;;;;;;4.85;1.70;;;12.20;99.90;;;;;;5014052;28;20036;-75
2022/05/07 03:43:03;;;;;;;5.30;2.10;;;12.20;99.90;;;;;;5031409;28;20381;-75
2022/05/07 03:45:29;;;;;;;6.63;2.15;;;12.20;99.90;;;;;;5031050;28;20033;-75
2022/05/07 03:47:55;;;;;;;4.88;1.88;;;12.20;99.90;;;;;;5013284;28;20513;-75
2022/05/07 03:50:21;;;;;;;3.83;1.52;;;12.20;99.90;;;;;;5013283;28;20120;-75
2022/05/07 03:55:30;;;;;;;11.55;2.40;;;12.20;99.90;;;;;;5030980;28;20094;-75
2022/05/07 03:57:56;;;;;;;5.65;1.88;;;12.20;99.90;;;;;;5030867;28;20049;-75
2022/05/07 04:00:21;;;;;;;6.90;2.17;;;12.20;99.90;;;;;;5013255;28;20087;-75
2022/05/07 04:02:47;;;;;;;5.10;1.92;;;12.20;99.90;;;;;;5013211;28;20030;-76
2022/05/07 04:05:12;;;;;;;5.28;1.50;;;12.20;99.90;;;;;;5031288;28;20477;-76
2022/05/07 04:07:38;;;;;;;6.72;1.92;;;12.20;99.90;;;;;;5030910;28;20510;-76
2022/05/07 04:10:04;;;;;;;7.03;2.08;;;12.20;99.90;;;;;;5030923;28;20509;-77
2022/05/07 04:12:30;;;;;;;4.78;1.98;;;12.20;99.90;;;;;;5030956;28;20567;-76
2022/05/07 04:15:02;;;;;;;6.88;2.05;;;12.20;99.90;;;;;;5013043;28;20038;-77
2022/05/07 04:17:28;;;;;;;4.85;1.75;;;12.10;99.90;;;;;;5013124;28;20034;-76
2022/05/07 04:19:54;;;;;;;5.53;1.80;;;12.10;99.90;;;;;;5030737;28;20036;-76
2022/05/07 04:22:20;;;;;;;6.18;2.78;;;12.20;99.90;;;;;;5031239;28;20025;-77
2022/05/07 04:24:46;;;;;;;6.78;2.42;;;12.20;99.90;;;;;;5013205;28;20163;-76
2022/05/07 04:27:12;;;;;;;9.45;2.35;;;12.20;99.90;;;;;;5012858;28;20105;-77
2022/05/07 04:29:37;;;;;;;6.70;1.83;;;12.20;99.90;;;;;;5030900;28;20481;-76
2022/05/07 04:32:03;;;;;;;6.25;2.22;;;12.20;99.90;;;;;;5030532;28;20486;-76
2022/05/07 04:34:29;;;;;;;11.75;2.83;;;12.20;99.90;;;;;;5030261;28;20037;-76
2022/05/07 04:36:56;;;;;;;8.60;2.60;;;12.70;99.90;;;;;;5012852;28;20490;-76
2022/05/07 04:39:21;;;;;;;6.65;2.47;;;12.20;99.90;;;;;;5016796;28;20033;-76
2022/05/07 04:41:47;;;;;;;7.03;2.00;;;12.20;99.90;;;;;;5037009;28;20057;-76
2022/05/07 04:44:13;;;;;;;8.18;1.98;;;12.20;99.90;;;;;;5036967;28;20072;-76
2022/05/07 04:46:39;;;;;;;17.10;3.55;;;12.30;99.90;;;;;;5037456;28;20486;-76
2022/05/07 04:49:06;;;;;;;9.00;3.30;;;12.20;99.90;;;;;;5036910;28;20033;-76
2022/05/07 04:51:32;;;;;;;7.07;2.47;;;12.30;99.90;;;;;;5036821;28;20040;-76
2022/05/07 04:53:58;;;;;;;10.13;2.75;;;12.30;99.90;;;;;;5036715;28;20057;-76
2022/05/07 04:56:24;;;;;;;6.80;3.15;;;12.30;99.90;;;;;;5018968;28;20032;-76
2022/05/07 04:58:51;;;;;;;11.73;3.17;;;12.40;99.90;;;;;;5018936;28;20121;-76
2022/05/07 05:01:17;;;;;;;8.43;3.47;;;12.40;99.90;;;;;;5037227;28;20386;-76
2022/05/07 05:03:42;;;;;;;13.73;3.30;;;12.50;99.90;;;;;;5037592;28;20034;-76
2022/05/07 05:06:09;;;;;;;11.48;3.15;;;12.60;99.90;;;;;;5019059;28;20029;-76
2022/05/07 05:08:34;;;;;;;7.15;2.67;;;12.60;99.90;;;;;;5036614;28;20029;-76
2022/05/07 05:11:00;;;;;;;8.35;3.65;;;12.70;99.90;;;;;;5018968;28;20521;-76
2022/05/07 05:13:25;;;;;;;14.68;4.10;;;12.70;99.90;;;;;;5036617;28;20037;-76
2022/05/07 05:15:51;;;;;;;11.95;3.50;;;12.70;99.90;;;;;;5018725;28;20513;-75
2022/05/07 05:18:16;;;;;;;8.35;2.67;;;12.80;99.90;;;;;;5036568;28;20109;-76
2022/05/07 05:20:42;;;;;;;7.75;3.28;;;12.80;99.90;;;;;;5036793;28;20436;-76
2022/05/07 05:23:07;;;;;;;8.68;3.10;;;12.80;99.90;;;;;;5019327;28;20026;-76
2022/05/07 05:25:33;;;;;;;9.20;2.70;;;12.90;99.90;;;;;;5036376;28;20041;-76
2022/05/07 05:27:59;;;;;;;12.68;3.78;;;13.40;99.90;;;;;;5036495;28;20026;-76
2022/05/07 05:30:24;;;;;;;11.95;3.58;;;13.00;99.90;;;;;;5036734;28;20061;-76
2022/05/07 05:32:50;;;;;;;10.35;3.10;;;13.00;99.90;;;;;;5036510;28;20042;-76
2022/05/07 05:35:16;;;;;;;12.77;4.00;;;13.10;99.90;;;;;;5036819;28;20033;-75
2022/05/07 05:37:41;;;;;;;9.57;3.30;;;13.10;99.90;;;;;;5036494;28;20078;-75
2022/05/07 05:40:07;;;;;;;11.43;3.90;;;13.20;99.90;;;;;;5036368;28;20057;-75
2022/05/07 05:42:33;;;;;;;19.50;6.00;;;13.30;99.90;;;;;;5036155;28;20029;-75
2022/05/07 05:44:59;;;;;;;14.23;5.90;;;13.30;99.90;;;;;;5018560;28;20040;-75
2022/05/07 05:47:24;;;;;;;16.90;5.93;;;13.50;99.90;;;;;;5018255;28;20072;-75
2022/05/07 05:49:50;;;;;;;16.05;6.05;;;13.60;99.90;;;;;;5034575;28;20045;-75
2022/05/07 05:52:16;;;;;;;19.55;5.88;;;13.70;99.90;;;;;;5032619;28;20112;-75
2022/05/07 05:54:42;;;;;;;16.95;5.50;;;13.90;99.90;;;;;;5032761;28;20036;-75
2022/05/07 05:57:07;;;;;;;22.88;7.75;;;14.00;99.90;;;;;;5032687;28;20042;-76
2022/05/07 05:59:33;;;;;;;14.68;6.43;;;14.10;99.90;;;;;;5032777;28;20042;-76
2022/05/07 06:01:58;;;;;;;18.65;6.65;;;14.10;99.90;;;;;;5033035;28;20038;-76
2022/05/07 06:04:24;;;;;;;17.98;7.22;;;14.20;99.90;;;;;;5033132;28;20040;-75
2022/05/07 06:06:50;;;;;;;19.00;7.20;;;14.30;99.90;;;;;;5015067;28;20029;-76
2022/05/07 06:09:18;;;;;;;18.88;6.15;;;14.30;99.90;;;;;;5032616;28;20033;-76
2022/05/07 06:11:44;;;;;;;21.02;7.20;;;14.40;99.90;;;;;;5014914;28;20044;-76
2022/05/07 06:14:09;;;;;;;21.73;8.57;;;14.40;99.90;;;;;;5032439;28;20033;-76
2022/05/07 06:16:35;;;;;;;19.20;7.13;;;14.70;99.90;;;;;;5032711;28;20108;-76
2022/05/07 06:19:01;;;;;;;24.10;8.30;;;14.50;99.90;;;;;;5014715;28;20022;-76
2022/05/07 06:21:27;;;;;;;19.10;7.78;;;14.50;99.90;;;;;;5032470;28;20026;-76
2022/05/07 06:23:53;;;;;;;24.50;9.25;;;15.30;99.90;;;;;;5014754;28;20036;-76
2022/05/07 06:29:02;;;;;;;29.17;9.43;;;14.70;99.90;;;;;;5032981;28;20036;-76
2022/05/07 06:31:30;;;;;;;30.55;9.63;;;14.70;99.90;;;;;;5032240;28;20041;-76
2022/05/07 06:33:56;;;;;;;21.75;8.57;;;14.70;99.90;;;;;;5032218;28;20401;-76
2022/05/07 06:36:21;;;;;;;21.35;8.43;;;14.80;99.90;;;;;;5032044;28;20033;-76
2022/05/07 06:38:47;;;;;;;23.17;8.20;;;14.90;99.90;;;;;;5032270;28;20117;-76
2022/05/07 06:41:13;;;;;;;25.08;9.43;;;14.90;99.90;;;;;;5032159;28;20054;-76
2022/05/07 06:43:39;;;;;;;21.00;7.95;;;15.10;99.90;;;;;;5032149;28;20075;-76
2022/05/07 06:46:04;;;;;;;23.45;8.57;;;15.40;99.90;;;;;;5014208;28;20038;-76
2022/05/07 06:48:30;;;;;;;24.92;9.45;;;15.30;99.90;;;;;;5032446;28;20044;-76
2022/05/07 06:50:56;;;;;;;25.88;10.85;;;15.60;99.90;;;;;;5031945;28;20034;-76
2022/05/07 06:53:22;;;;;;;28.95;10.88;;;15.70;99.90;;;;;;5014224;28;20414;-76
2022/05/07 06:56:03;;;;;;;22.77;10.50;;;15.50;99.90;;;;;;5013961;28;20060;-76
2022/05/07 06:58:30;;;;;;;22.35;9.40;;;15.80;99.90;;;;;;5031905;28;20034;-76
2022/05/07 07:00:57;;;;;;;25.35;10.00;;;16.00;99.90;;;;;;5031774;28;20033;-76
2022/05/07 07:03:24;;;;;;;21.65;9.15;;;16.30;99.90;;;;;;5013993;28;20025;-76
2022/05/07 07:05:50;;;;;;;25.60;9.60;;;16.40;99.90;;;;;;5031869;28;20051;-76
2022/05/07 07:08:16;;;;;;;27.88;10.57;;;16.60;99.90;;;;;;5032158;28;20095;-77
2022/05/07 07:10:42;;;;;;;23.30;9.40;;;16.60;99.90;;;;;;5032473;28;20041;-78
2022/05/07 07:13:08;;;;;;;22.30;9.40;;;16.60;99.90;;;;;;5031938;28;20109;-76
2022/05/07 07:15:35;;;;;;;21.92;8.55;;;16.60;99.90;;;;;;5031396;28;20033;-76
2022/05/07 07:18:04;;;;;;;18.50;7.82;;;16.90;99.90;;;;;;5031521;28;20036;-75
2022/05/07 07:20:30;;;;;;;20.42;7.88;;;17.10;99.90;;;;;;5013789;28;20025;-75
2022/05/07 07:22:55;;;;;;;19.92;7.25;;;17.40;99.90;;;;;;5031456;28;20034;-75
2022/05/07 07:25:21;;;;;;;18.27;7.75;;;17.60;99.90;;;;;;5031383;28;20037;-75
2022/05/07 07:27:47;;;;;;;24.52;8.15;;;17.60;99.90;;;;;;5014005;28;20125;-76
2022/05/07 07:30:12;;;;;;;17.08;6.30;;;17.70;99.90;;;;;;5013590;28;20029;-76
2022/05/07 07:32:38;;;;;;;17.77;7.28;;;17.70;99.90;;;;;;5031279;28;20037;-75
2022/05/07 07:35:05;;;;;;;15.90;7.28;;;17.80;99.90;;;;;;5031526;28;20063;-75
2022/05/07 07:37:32;;;;;;;18.88;7.90;;;17.90;99.90;;;;;;5013465;28;20096;-75
2022/05/07 07:40:00;;;;;;;14.48;6.32;;;17.90;99.90;;;;;;5013415;28;20026;-75
2022/05/07 07:42:27;;;;;;;16.90;6.80;;;18.20;99.90;;;;;;5031062;28;20482;-76
2022/05/07 07:50:21;;;;;;;16.95;6.85;;;17.90;99.90;;;;;;5031039;28;20117;-75
2022/05/07 07:52:48;;;;;;;19.35;6.88;;;17.90;99.90;;;;;;5031376;28;20465;-76
2022/05/07 07:55:13;;;;;;;15.55;6.70;;;18.00;99.90;;;;;;5013381;28;20062;-76
2022/05/07 07:57:39;;;;;;;14.75;5.80;;;18.00;99.90;;;;;;5030974;28;20153;-76
2022/05/07 08:00:06;;;;;;;21.95;7.97;;;18.10;99.90;;;;;;5013356;28;20029;-76
2022/05/07 08:02:31;;;;;;;15.63;7.00;;;18.20;99.90;;;;;;5031254;28;20021;-76
2022/05/07 08:04:57;;;;;;;16.67;7.25;;;18.20;99.90;;;;;;5013198;28;20033;-76
2022/05/07 08:12:52;;;;;;;14.15;5.60;;;18.70;99.90;;;;;;5030447;28;20077;-75
2022/05/07 08:15:18;;;;;;;11.18;5.03;;;18.80;99.90;;;;;;5030662;28;20463;-76
2022/05/07 08:17:43;;;;;;;13.88;5.88;;;19.00;99.90;;;;;;5030697;28;20032;-76
2022/05/07 08:20:10;;;;;;;13.30;4.63;;;19.30;99.90;;;;;;5030737;28;20034;-76
2022/05/07 08:22:36;;;;;;;13.27;4.50;;;19.20;99.90;;;;;;5030980;28;20025;-76
2022/05/07 08:25:01;;;;;;;12.88;5.57;;;19.10;99.90;;;;;;5012928;28;20060;-76
2022/05/07 08:27:27;;;;;;;11.90;5.63;;;19.10;99.90;;;;;;5012778;28;20486;-76
2022/05/07 08:29:56;;;;;;;13.82;5.63;;;19.10;99.90;;;;;;5030843;28;20033;-75
2022/05/07 08:32:22;;;;;;;9.55;4.70;;;19.20;99.90;;;;;;5012800;28;20063;-76
2022/05/07 08:34:48;;;;;;;12.02;4.63;;;19.30;99.90;;;;;;5030682;28;20034;-75
2022/05/07 08:37:14;;;;;;;8.75;4.20;;;19.50;99.90;;;;;;5030825;28;20026;-80
2022/05/07 08:39:40;;;;;;;12.55;5.22;;;19.70;99.90;;;;;;5015842;28;20546;-80
2022/05/07 08:42:07;;;;;;;11.50;5.03;;;19.80;99.90;;;;;;5015722;28;20057;-77
2022/05/07 08:44:33;;;;;;;16.35;4.90;;;20.10;99.90;;;;;;5012681;28;20033;-77
2022/05/07 08:59:51;;;;;;;12.82;6.10;;;20.20;99.90;;;;;;5030157;28;20466;-77
2022/05/07 09:02:17;;;;;;;12.48;5.15;;;20.20;99.90;;;;;;5027638;28;20025;-78
2022/05/07 09:04:54;;;;;;;13.10;4.82;;;20.30;99.90;;;;;;5059398;28;20022;-77
2022/05/07 09:07:20;;;;;;;13.85;6.10;;;20.40;99.90;;;;;;5027922;28;20124;-75
2022/05/07 09:09:49;;;;;;;12.27;4.90;;;20.50;99.90;;;;;;5027111;28;20042;-74
2022/05/07 09:12:25;;;;;;;14.48;5.18;;;20.90;99.90;;;;;;5027433;28;20411;-77
2022/05/07 09:14:51;;;;;;;8.52;3.70;;;20.60;99.90;;;;;;5025695;28;20021;-76
2022/05/07 09:17:19;;;;;;;6.80;2.95;;;20.60;99.90;;;;;;5026888;28;20025;-76
2022/05/07 09:19:45;;;;;;;5.57;2.50;;;20.60;99.90;;;;;;5026559;28;20040;-75
2022/05/07 09:22:11;;;;;;;5.60;2.47;;;20.80;99.90;;;;;;5026933;28;20025;-77
2022/05/07 09:24:40;;;;;;;7.50;3.22;;;20.80;99.90;;;;;;5027067;28;20066;-76
2022/05/07 09:27:07;;;;;;;7.25;3.75;;;20.80;99.90;;;;;;5027342;28;20047;-76
2022/05/07 09:29:33;;;;;;;8.95;3.60;;;21.00;99.90;;;;;;5027486;28;20056;-75
2022/05/07 09:32:18;;;;;;;10.80;3.60;;;21.00;99.90;;;;;;5025705;28;20017;-76
2022/05/07 09:37:39;;;;;;;6.80;2.63;;;21.10;99.90;;;;;;5027820;28;20072;-77
2022/05/07 09:40:10;;;;;;;7.45;2.72;;;21.30;99.90;;;;;;5026935;28;20021;-77
2022/05/07 09:42:36;;;;;;;11.82;4.47;;;21.40;99.70;;;;;;5026587;28;20025;-76
2022/05/07 09:45:03;;;;;;;10.98;3.60;;;21.30;97.40;;;;;;5027253;28;20462;-76
2022/05/07 09:47:29;;;;;;;8.98;3.15;;;21.30;98.70;;;;;;5027134;28;20029;-76
2022/05/07 09:58:18;;;;;;;10.30;3.90;;;21.00;99.90;;;;;;5026545;28;20104;-77
2022/05/07 10:01:21;;;;;;;14.38;5.13;;;21.00;99.90;;;;;;5014498;28;20033;-78
2022/05/07 10:04:22;;;;;;;10.15;5.30;;;21.00;99.90;;;;;;5026539;28;20030;-79
2022/05/07 10:07:15;;;;;;;14.65;6.18;;;21.00;99.90;;;;;;5104094;28;20536;-79
2022/05/07 10:09:43;;;;;;;14.70;6.07;;;21.00;99.90;;;;;;5018613;28;20046;-79
2022/05/07 10:12:10;;;;;;;;;;;21.00;99.90;;;;;;5015553;28;20026;-80
2022/05/07 10:14:35;;;;;;;22.98;7.57;;;21.20;99.90;;;;;;5017633;28;19914;-81
2022/05/07 10:17:11;;;;;;;16.05;6.47;;;21.50;99.90;;;;;;5015508;28;20026;-80
2022/05/07 10:19:39;;;;;;;13.45;5.70;;;21.80;99.90;;;;;;5013354;28;20036;-76
2022/05/07 10:22:34;;;;;;;16.40;5.78;;;21.90;99.90;;;;;;5012890;28;20025;-76
2022/05/07 10:25:06;;;;;;;15.27;6.45;;;22.20;99.90;;;;;;5020256;28;20129;-77
2022/05/07 10:27:32;;;;;;;16.67;7.10;;;22.40;99.80;;;;;;5011632;28;20030;-77
2022/05/07 10:30:16;;;;;;;13.10;5.47;;;22.70;97.70;;;;;;5012726;28;20484;-76
2022/05/07 10:32:59;;;;;;;12.85;4.45;;;22.70;98.50;;;;;;5012750;28;20500;-77
2022/05/07 10:35:44;;;;;;;9.57;4.38;;;24.30;95.80;;;;;;5012926;28;20106;-77
2022/05/07 10:38:23;;;;;;;9.80;4.95;;;23.10;93.10;;;;;;5044466;28;20025;-76
2022/05/07 10:40:57;;;;;;;;;;;23.20;91.40;;;;;;5044885;28;20057;-77
2022/05/07 10:43:28;;;;;;;10.40;4.68;;;23.20;92.90;;;;;;5012411;28;19906;-77
2022/05/07 10:46:01;;;;;;;11.80;4.35;;;23.40;91.90;;;;;;5012742;28;20064;-77
2022/05/07 10:48:27;;;;;;;14.40;5.65;;;23.70;88.60;;;;;;5011039;28;20022;-76
2022/05/07 10:50:55;;;;;;;10.60;4.00;;;23.90;83.00;;;;;;5013013;28;20048;-77
2022/05/07 10:53:21;;;;;;;8.43;3.50;;;24.10;81.80;;;;;;5011468;28;20022;-78
2022/05/07 10:55:50;;;;;;;9.93;3.08;;;23.90;77.50;;;;;;5012316;28;20265;-76
2022/05/07 10:58:26;;;;;;;4.32;2.50;;;23.90;74.90;;;;;;5012557;28;20094;-77
2022/05/07 11:00:52;;;;;;;7.63;2.90;;;23.80;80.40;;;;;;5011137;28;20026;-77
2022/05/07 11:03:25;;;;;;;6.93;3.05;;;23.90;72.80;;;;;;5044006;28;20438;-77
2022/05/07 11:05:51;;;;;;;7.45;2.63;;;23.90;76.00;;;;;;5013222;28;20061;-76
2022/05/07 11:08:17;;;;;;;8.63;3.72;;;23.90;75.50;;;;;;5011916;28;20061;-76
2022/05/07 11:10:42;;;;;;;7.32;3.40;;;23.60;74.10;;;;;;5043433;28;20063;-76
2022/05/07 11:13:09;;;;;;;9.18;3.38;;;23.60;79.40;;;;;;5010625;28;20042;-77
2022/05/07 11:15:35;;;;;;;8.95;2.75;;;23.90;82.00;;;;;;5011998;28;20018;-77
2022/05/07 11:18:11;;;;;;;6.82;2.72;;;24.00;75.20;;;;;;5012147;28;20040;-76
2022/05/07 11:20:38;;;;;;;6.07;2.60;;;24.10;77.80;;;;;;5010495;28;20057;-76
2022/05/07 11:23:04;;;;;;;10.38;2.97;;;24.20;73.00;;;;;;5013417;28;20034;-75
2022/05/07 11:25:31;;;;;;;9.02;3.08;;;24.10;71.80;;;;;;5011825;28;20063;-75
2022/05/07 11:27:58;;;;;;;9.48;3.40;;;24.10;71.00;;;;;;5012123;28;20030;-75
2022/05/07 11:30:25;;;;;;;5.90;2.75;;;24.00;68.40;;;;;;5011951;28;20112;-75
2022/05/07 11:32:50;;;;;;;6.00;2.15;;;24.10;68.50;;;;;;5011904;28;20018;-75
2022/05/07 11:35:16;;;;;;;7.22;2.45;;;24.20;69.90;;;;;;5010478;28;20033;-75
2022/05/07 11:37:44;;;;;;;6.60;2.97;;;24.50;69.90;;;;;;5011726;28;20053;-75
2022/05/07 11:40:12;;;;;;;7.15;3.55;;;24.50;65.20;;;;;;5011479;28;20449;-75
2022/05/07 11:42:38;;;;;;;7.78;2.65;;;24.60;69.30;;;;;;5011723;28;20538;-75
2022/05/07 11:45:33;;;;;;;9.43;3.70;;;24.90;68.00;;;;;;5010247;28;20030;-76
2022/05/07 11:48:11;;;;;;;5.40;2.33;;;24.90;63.30;;;;;;5012000;28;20477;-76
2022/05/07 11:50:41;;;;;;;;;;;25.00;67.10;;;;;;5011949;28;20026;-76
2022/05/07 11:53:31;;;;;;;4.18;2.50;;;24.90;66.50;;;;;;5011586;28;20287;-74
2022/05/07 11:56:11;;;;;;;10.60;3.25;;;24.60;66.70;;;;;;5011583;28;20121;-74
2022/05/07 11:58:46;;;;;;;10.85;3.72;;;24.50;69.10;;;;;;5010207;28;20113;-75
2022/05/07 12:01:20;;;;;;;5.45;2.67;;;24.70;64.60;;;;;;5011857;28;20417;-75
2022/05/07 12:03:46;;;;;;;6.88;2.35;;;24.60;65.40;;;;;;5011253;28;20488;-74
2022/05/07 12:06:23;;;;;;;6.22;2.70;;;24.90;67.90;;;;;;5011052;28;20026;-74
2022/05/07 12:08:48;;;;;;;6.95;2.97;;;25.10;64.10;;;;;;5011522;28;20472;-74
2022/05/07 12:11:14;;;;;;;8.57;2.00;;;25.40;63.60;;;;;;5011829;28;20028;-75
2022/05/07 12:13:41;;;;;;;3.67;2.00;;;25.70;64.10;;;;;;5011139;28;20030;-76
2022/05/07 12:18:54;;;;;;;6.72;3.22;;;25.90;60.00;;;;;;5011765;28;20531;-75
2022/05/07 12:29:50;;;;;;;5.75;2.67;;;27.10;59.00;;;;;;5027224;28;20045;-93
2022/05/07 12:33:09;;;;;;;7.70;3.25;;;26.20;60.40;;;;;;5027568;28;20037;-94
2022/05/07 12:39:53;;;;;;;15.73;5.15;;;27.30;63.60;;;;;;4999033;28;20049;-93
2022/05/07 12:46:38;;;;;;;6.32;2.65;;;26.90;60.50;;;;;;4989444;28;20070;-93
2022/05/07 12:49:04;;;;;;;7.82;3.28;;;25.60;62.90;;;;;;4937892;28;20047;-94
2022/05/07 12:55:36;;;;;;;10.63;4.07;;;24.90;59.40;;;;;;5032957;28;20104;-94
2022/05/07 13:03:57;;;;;;;8.82;4.47;;;26.40;61.70;;;;;;5050192;28;20045;-75
2022/05/07 13:06:23;;;;;;;7.43;4.13;;;26.80;56.30;;;;;;5053039;28;20040;-76
2022/05/07 13:08:48;;;;;;;7.22;3.00;;;26.80;60.60;;;;;;5053191;28;20021;-76
2022/05/07 13:11:14;;;;;;;7.28;3.53;;;27.00;57.70;;;;;;5049830;28;20028;-76
2022/05/07 13:13:39;;;;;;;16.38;3.38;;;27.30;58.80;;;;;;5052606;28;20437;-78
2022/05/07 13:16:05;;;;;;;8.90;3.38;;;27.50;54.10;;;;;;5053494;28;20025;-78
2022/05/07 13:18:30;;;;;;;5.78;2.60;;;27.40;56.00;;;;;;5054730;28;20021;-77
2022/05/07 13:20:56;;;;;;;5.97;2.95;;;27.30;57.50;;;;;;5054598;28;20025;-78
2022/05/07 13:23:22;;;;;;;8.13;3.08;;;27.40;55.90;;;;;;5058918;28;20036;-78
2022/05/07 13:25:47;;;;;;;7.75;3.67;;;26.70;56.00;;;;;;5059193;28;20017;-78
2022/05/07 13:28:13;;;;;;;6.65;3.30;;;26.20;56.70;;;;;;5058994;28;20032;-78
2022/05/07 13:30:41;;;;;;;7.18;2.55;;;25.80;57.10;;;;;;5057146;28;20064;-78
2022/05/07 13:33:07;;;;;;;7.68;3.15;;;25.70;59.60;;;;;;5054773;28;20025;-78
2022/05/07 13:35:33;;;;;;;12.55;3.90;;;25.50;60.10;;;;;;5056582;28;20029;-78
2022/05/07 13:37:58;;;;;;;7.60;3.17;;;25.50;59.00;;;;;;5058894;28;20498;-78
2022/05/07 13:40:24;;;;;;;11.80;2.28;;;25.90;60.20;;;;;;5059897;28;20384;-76
2022/05/07 13:42:49;;;;;;;6.53;2.90;;;26.00;60.00;;;;;;5056474;28;20094;-76
2022/05/07 13:45:15;;;;;;;5.93;2.53;;;26.20;58.60;;;;;;5056739;28;20577;-76
2022/05/07 13:47:42;;;;;;;6.40;2.30;;;26.70;58.60;;;;;;5056145;28;20115;-76
2022/05/07 13:50:09;;;;;;;6.28;2.47;;;27.10;58.40;;;;;;5055100;28;20019;-76
2022/05/07 13:52:40;;;;;;;6.43;2.97;;;27.50;56.50;;;;;;5056281;28;20387;-75
2022/05/07 13:55:08;;;;;;;8.25;2.42;;;27.50;55.60;;;;;;5056528;28;20387;-75
2022/05/07 13:57:34;;;;;;;7.75;2.75;;;27.60;55.50;;;;;;5055148;28;20044;-75
2022/05/07 14:00:01;;;;;;;6.68;2.42;;;27.20;53.80;;;;;;5056095;28;20025;-75